sensor_id;sensor_type;location;lat;lon;timestamp;temperature;humidity
45983;DHT22;31711;47.158;7.346;2024-02-16T00:00:09;6.80;99.90
45983;DHT22;31711;47.158;7.346;2024-02-16T00:02:39;6.80;99.90
45983;DHT22;31711;47.158;7.346;2024-02-16T00:05:07;6.70;99.90
45983;DHT22;31711;47.158;7.346;2024-02-16T00:07:33;6.70;99.90
45983;DHT22;31711;47.158;7.346;2024-02-16T00:10:00;6.60;99.90
45983;DHT22;31711;47.158;7.346;2024-02-16T00:12:26;6.60;99.90
45983;DHT22;31711;47.158;7.346;2024-02-16T00:14:52;6.50;99.90
45983;DHT22;31711;47.158;7.346;2024-02-16T00:17:18;6.50;99.90
45983;DHT22;31711;47.158;7.346;2024-02-16T00:19:44;6.40;99.90
45983;DHT22;31711;47.158;7.346;2024-02-16T00:22:10;6.40;99.90
45983;DHT22;31711;47.158;7.346;2024-02-16T00:24:36;6.30;99.90
45983;DHT22;31711;47.158;7.346;2024-02-16T00:27:02;6.40;99.90
45983;DHT22;31711;47.158;7.346;2024-02-16T00:29:31;6.30;99.90
45983;DHT22;31711;47.158;7.346;2024-02-16T00:31:58;6.30;99.90
45983;DHT22;31711;47.158;7.346;2024-02-16T00:34:25;6.20;99.90
45983;DHT22;31711;47.158;7.346;2024-02-16T00:36:51;6.10;99.90
45983;DHT22;31711;47.158;7.346;2024-02-16T00:39:18;6.10;99.90
45983;DHT22;31711;47.158;7.346;2024-02-16T00:41:44;6.10;99.90
45983;DHT22;31711;47.158;7.346;2024-02-16T00:44:12;6.00;99.90
45983;DHT22;31711;47.158;7.346;2024-02-16T00:46:38;5.90;99.90
45983;DHT22;31711;47.158;7.346;2024-02-16T00:49:04;5.90;99.90
45983;DHT22;31711;47.158;7.346;2024-02-16T00:51:29;5.90;99.90
45983;DHT22;31711;47.158;7.346;2024-02-16T00:53:55;5.80;99.90
45983;DHT22;31711;47.158;7.346;2024-02-16T00:56:22;5.90;99.90
45983;DHT22;31711;47.158;7.346;2024-02-16T00:58:48;5.80;99.90
45983;DHT22;31711;47.158;7.346;2024-02-16T01:01:14;5.80;99.90
45983;DHT22;31711;47.158;7.346;2024-02-16T01:03:40;5.80;99.90
45983;DHT22;31711;47.158;7.346;2024-02-16T01:06:06;5.90;99.90
45983;DHT22;31711;47.158;7.346;2024-02-16T01:08:34;5.80;99.90
45983;DHT22;31711;47.158;7.346;2024-02-16T01:11:00;5.90;99.90
45983;DHT22;31711;47.158;7.346;2024-02-16T01:13:26;5.90;99.90
45983;DHT22;31711;47.158;7.346;2024-02-16T01:15:52;5.90;99.90
45983;DHT22;31711;47.158;7.346;2024-02-16T01:18:18;6.00;99.90
45983;DHT22;31711;47.158;7.346;2024-02-16T01:20:44;6.00;99.90
45983;DHT22;31711;47.158;7.346;2024-02-16T01:23:10;6.00;99.90
45983;DHT22;31711;47.158;7.346;2024-02-16T01:25:36;5.90;99.90
45983;DHT22;31711;47.158;7.346;2024-02-16T01:28:02;6.00;99.90
45983;DHT22;31711;47.158;7.346;2024-02-16T01:30:28;6.00;99.90
45983;DHT22;31711;47.158;7.346;2024-02-16T01:32:54;6.00;99.90
45983;DHT22;31711;47.158;7.346;2024-02-16T01:35:20;5.90;99.90
45983;DHT22;31711;47.158;7.346;2024-02-16T01:37:46;5.90;99.90
45983;DHT22;31711;47.158;7.346;2024-02-16T01:40:12;5.80;99.90
45983;DHT22;31711;47.158;7.346;2024-02-16T01:42:41;5.80;99.90
45983;DHT22;31711;47.158;7.346;2024-02-16T01:45:08;5.80;99.90
45983;DHT22;31711;47.158;7.346;2024-02-16T01:47:38;5.70;99.90
45983;DHT22;31711;47.158;7.346;2024-02-16T01:50:05;5.70;99.90
45983;DHT22;31711;47.158;7.346;2024-02-16T01:52:31;5.60;99.90
45983;DHT22;31711;47.158;7.346;2024-02-16T01:55:00;5.50;99.90
45983;DHT22;31711;47.158;7.346;2024-02-16T01:57:29;5.40;99.90
45983;DHT22;31711;47.158;7.346;2024-02-16T01:59:55;5.30;99.90
45983;DHT22;31711;47.158;7.346;2024-02-16T02:02:21;5.30;99.90
45983;DHT22;31711;47.158;7.346;2024-02-16T02:04:47;5.20;99.90
45983;DHT22;31711;47.158;7.346;2024-02-16T02:07:15;5.20;99.90
45983;DHT22;31711;47.158;7.346;2024-02-16T02:09:41;5.10;99.90
45983;DHT22;31711;47.158;7.346;2024-02-16T02:12:09;5.10;99.90
45983;DHT22;31711;47.158;7.346;2024-02-16T02:14:35;5.00;99.90
45983;DHT22;31711;47.158;7.346;2024-02-16T02:17:03;5.00;99.90
45983;DHT22;31711;47.158;7.346;2024-02-16T02:19:30;5.00;99.90
45983;DHT22;31711;47.158;7.346;2024-02-16T02:21:56;4.90;99.90
45983;DHT22;31711;47.158;7.346;2024-02-16T02:24:22;4.90;99.90
45983;DHT22;31711;47.158;7.346;2024-02-16T02:26:48;4.90;99.90
45983;DHT22;31711;47.158;7.346;2024-02-16T02:29:14;4.80;99.90
45983;DHT22;31711;47.158;7.346;2024-02-16T02:31:40;4.80;99.90
45983;DHT22;31711;47.158;7.346;2024-02-16T02:34:06;4.80;99.90
45983;DHT22;31711;47.158;7.346;2024-02-16T02:36:32;4.80;99.90
45983;DHT22;31711;47.158;7.346;2024-02-16T02:38:58;4.80;99.90
45983;DHT22;31711;47.158;7.346;2024-02-16T02:41:24;4.70;99.90
45983;DHT22;31711;47.158;7.346;2024-02-16T02:43:51;4.70;99.90
45983;DHT22;31711;47.158;7.346;2024-02-16T02:46:18;4.60;99.90
45983;DHT22;31711;47.158;7.346;2024-02-16T02:48:45;4.50;99.90
45983;DHT22;31711;47.158;7.346;2024-02-16T02:51:11;4.50;99.90
45983;DHT22;31711;47.158;7.346;2024-02-16T02:53:37;4.50;99.90
45983;DHT22;31711;47.158;7.346;2024-02-16T02:56:04;4.50;99.90
45983;DHT22;31711;47.158;7.346;2024-02-16T02:58:30;4.50;99.90
45983;DHT22;31711;47.158;7.346;2024-02-16T03:00:56;4.40;99.90
45983;DHT22;31711;47.158;7.346;2024-02-16T03:03:23;4.40;99.90
45983;DHT22;31711;47.158;7.346;2024-02-16T03:05:50;4.30;99.90
45983;DHT22;31711;47.158;7.346;2024-02-16T03:08:16;4.40;99.90
45983;DHT22;31711;47.158;7.346;2024-02-16T03:10:42;4.30;99.90
45983;DHT22;31711;47.158;7.346;2024-02-16T03:13:10;4.30;99.90
45983;DHT22;31711;47.158;7.346;2024-02-16T03:15:38;4.30;99.90
45983;DHT22;31711;47.158;7.346;2024-02-16T03:18:07;4.30;99.90
45983;DHT22;31711;47.158;7.346;2024-02-16T03:20:35;4.30;99.90
45983;DHT22;31711;47.158;7.346;2024-02-16T03:23:02;4.30;99.90
45983;DHT22;31711;47.158;7.346;2024-02-16T03:25:29;4.40;99.90
45983;DHT22;31711;47.158;7.346;2024-02-16T03:27:55;4.40;99.90
45983;DHT22;31711;47.158;7.346;2024-02-16T03:30:21;4.40;99.90
45983;DHT22;31711;47.158;7.346;2024-02-16T03:32:48;4.30;99.90
45983;DHT22;31711;47.158;7.346;2024-02-16T03:35:15;4.30;99.90
45983;DHT22;31711;47.158;7.346;2024-02-16T03:37:41;4.30;99.90
45983;DHT22;31711;47.158;7.346;2024-02-16T03:40:08;4.40;99.90
45983;DHT22;31711;47.158;7.346;2024-02-16T03:42:35;4.40;99.90
45983;DHT22;31711;47.158;7.346;2024-02-16T03:45:05;4.40;99.90
45983;DHT22;31711;47.158;7.346;2024-02-16T03:47:31;4.40;99.90
45983;DHT22;31711;47.158;7.346;2024-02-16T03:49:57;4.50;99.90
45983;DHT22;31711;47.158;7.346;2024-02-16T03:52:23;4.50;99.90
45983;DHT22;31711;47.158;7.346;2024-02-16T03:54:50;4.50;99.90
45983;DHT22;31711;47.158;7.346;2024-02-16T03:57:16;4.50;99.90
45983;DHT22;31711;47.158;7.346;2024-02-16T03:59:43;4.50;99.90
45983;DHT22;31711;47.158;7.346;2024-02-16T04:02:12;4.50;99.90
45983;DHT22;31711;47.158;7.346;2024-02-16T04:04:39;4.50;99.90
45983;DHT22;31711;47.158;7.346;2024-02-16T04:07:05;4.50;99.90
45983;DHT22;31711;47.158;7.346;2024-02-16T04:09:34;4.60;99.90
45983;DHT22;31711;47.158;7.346;2024-02-16T04:12:01;4.60;99.90
45983;DHT22;31711;47.158;7.346;2024-02-16T04:14:27;4.70;99.90
45983;DHT22;31711;47.158;7.346;2024-02-16T04:16:53;4.70;99.90
45983;DHT22;31711;47.158;7.346;2024-02-16T04:19:20;4.80;99.90
45983;DHT22;31711;47.158;7.346;2024-02-16T04:21:46;4.90;99.90
45983;DHT22;31711;47.158;7.346;2024-02-16T04:24:12;5.00;99.90
45983;DHT22;31711;47.158;7.346;2024-02-16T04:26:38;5.10;99.90
45983;DHT22;31711;47.158;7.346;2024-02-16T04:29:04;5.20;99.90
45983;DHT22;31711;47.158;7.346;2024-02-16T04:31:32;5.30;99.90
45983;DHT22;31711;47.158;7.346;2024-02-16T04:33:58;5.30;99.90
45983;DHT22;31711;47.158;7.346;2024-02-16T04:36:25;5.10;99.90
45983;DHT22;31711;47.158;7.346;2024-02-16T04:38:51;5.10;99.90
45983;DHT22;31711;47.158;7.346;2024-02-16T04:41:20;5.00;99.90
45983;DHT22;31711;47.158;7.346;2024-02-16T04:43:46;4.90;99.90
45983;DHT22;31711;47.158;7.346;2024-02-16T04:46:15;5.00;99.90
45983;DHT22;31711;47.158;7.346;2024-02-16T04:48:42;5.00;99.90
45983;DHT22;31711;47.158;7.346;2024-02-16T04:51:08;5.00;99.90
45983;DHT22;31711;47.158;7.346;2024-02-16T04:53:33;5.00;99.90
45983;DHT22;31711;47.158;7.346;2024-02-16T04:56:00;5.00;99.90
45983;DHT22;31711;47.158;7.346;2024-02-16T04:58:28;5.00;99.90
45983;DHT22;31711;47.158;7.346;2024-02-16T05:00:54;5.00;99.90
45983;DHT22;31711;47.158;7.346;2024-02-16T05:03:20;5.00;99.90
45983;DHT22;31711;47.158;7.346;2024-02-16T05:05:46;5.00;99.90
45983;DHT22;31711;47.158;7.346;2024-02-16T05:08:12;5.10;99.90
45983;DHT22;31711;47.158;7.346;2024-02-16T05:10:38;5.10;99.90
45983;DHT22;31711;47.158;7.346;2024-02-16T05:13:04;5.00;99.90
45983;DHT22;31711;47.158;7.346;2024-02-16T05:15:30;5.00;99.90
45983;DHT22;31711;47.158;7.346;2024-02-16T05:17:57;5.00;99.90
45983;DHT22;31711;47.158;7.346;2024-02-16T05:20:23;4.90;99.90
45983;DHT22;31711;47.158;7.346;2024-02-16T05:22:49;4.90;99.90
45983;DHT22;31711;47.158;7.346;2024-02-16T05:25:16;4.90;99.90
45983;DHT22;31711;47.158;7.346;2024-02-16T05:27:44;4.90;99.90
45983;DHT22;31711;47.158;7.346;2024-02-16T05:30:11;4.90;99.90
45983;DHT22;31711;47.158;7.346;2024-02-16T05:32:40;4.90;99.90
45983;DHT22;31711;47.158;7.346;2024-02-16T05:35:07;4.90;99.90
45983;DHT22;31711;47.158;7.346;2024-02-16T05:37:47;4.90;99.90
45983;DHT22;31711;47.158;7.346;2024-02-16T05:40:15;4.80;99.90
45983;DHT22;31711;47.158;7.346;2024-02-16T05:42:51;4.80;99.90
45983;DHT22;31711;47.158;7.346;2024-02-16T05:45:18;4.80;99.90
45983;DHT22;31711;47.158;7.346;2024-02-16T05:47:45;4.70;99.90
45983;DHT22;31711;47.158;7.346;2024-02-16T05:50:12;4.80;99.90
45983;DHT22;31711;47.158;7.346;2024-02-16T05:52:39;4.80;99.90
45983;DHT22;31711;47.158;7.346;2024-02-16T05:55:09;4.80;99.90
45983;DHT22;31711;47.158;7.346;2024-02-16T05:57:36;4.80;99.90
45983;DHT22;31711;47.158;7.346;2024-02-16T06:00:06;4.80;99.90
45983;DHT22;31711;47.158;7.346;2024-02-16T06:02:33;4.80;99.90
45983;DHT22;31711;47.158;7.346;2024-02-16T06:05:00;4.80;99.90
45983;DHT22;31711;47.158;7.346;2024-02-16T06:07:26;4.70;99.90
45983;DHT22;31711;47.158;7.346;2024-02-16T06:09:52;4.70;99.90
45983;DHT22;31711;47.158;7.346;2024-02-16T06:12:19;4.70;99.90
45983;DHT22;31711;47.158;7.346;2024-02-16T06:14:46;4.70;99.90
45983;DHT22;31711;47.158;7.346;2024-02-16T06:17:12;4.80;99.90
45983;DHT22;31711;47.158;7.346;2024-02-16T06:19:43;4.80;99.90
45983;DHT22;31711;47.158;7.346;2024-02-16T06:22:10;4.80;99.90
45983;DHT22;31711;47.158;7.346;2024-02-16T06:24:36;4.90;99.90
45983;DHT22;31711;47.158;7.346;2024-02-16T06:27:03;4.90;99.90
45983;DHT22;31711;47.158;7.346;2024-02-16T06:29:29;4.90;99.90
45983;DHT22;31711;47.158;7.346;2024-02-16T06:31:58;4.90;99.90
45983;DHT22;31711;47.158;7.346;2024-02-16T06:34:24;5.00;99.90
45983;DHT22;31711;47.158;7.346;2024-02-16T06:36:50;5.00;99.90
45983;DHT22;31711;47.158;7.346;2024-02-16T06:39:16;5.00;99.90
45983;DHT22;31711;47.158;7.346;2024-02-16T06:41:44;5.10;99.90
45983;DHT22;31711;47.158;7.346;2024-02-16T06:44:14;5.10;99.90
45983;DHT22;31711;47.158;7.346;2024-02-16T06:46:41;5.10;99.90
45983;DHT22;31711;47.158;7.346;2024-02-16T06:49:07;5.10;99.90
45983;DHT22;31711;47.158;7.346;2024-02-16T06:51:33;5.10;99.90
45983;DHT22;31711;47.158;7.346;2024-02-16T06:53:59;5.10;99.90
45983;DHT22;31711;47.158;7.346;2024-02-16T06:56:25;5.20;99.90
45983;DHT22;31711;47.158;7.346;2024-02-16T06:58:51;5.20;99.90
45983;DHT22;31711;47.158;7.346;2024-02-16T07:01:17;5.20;99.90
45983;DHT22;31711;47.158;7.346;2024-02-16T07:03:46;5.20;99.90
45983;DHT22;31711;47.158;7.346;2024-02-16T07:06:12;5.20;99.90
45983;DHT22;31711;47.158;7.346;2024-02-16T07:08:43;5.10;99.90
45983;DHT22;31711;47.158;7.346;2024-02-16T07:11:09;5.20;99.90
45983;DHT22;31711;47.158;7.346;2024-02-16T07:13:38;5.20;99.90
45983;DHT22;31711;47.158;7.346;2024-02-16T07:16:05;5.40;99.90
45983;DHT22;31711;47.158;7.346;2024-02-16T07:18:33;5.40;99.90
45983;DHT22;31711;47.158;7.346;2024-02-16T07:20:59;5.40;99.90
45983;DHT22;31711;47.158;7.346;2024-02-16T07:23:25;5.50;99.90
45983;DHT22;31711;47.158;7.346;2024-02-16T07:25:52;5.60;99.90
45983;DHT22;31711;47.158;7.346;2024-02-16T07:28:22;5.70;99.90
45983;DHT22;31711;47.158;7.346;2024-02-16T07:30:49;5.80;99.90
45983;DHT22;31711;47.158;7.346;2024-02-16T07:33:15;5.80;99.90
45983;DHT22;31711;47.158;7.346;2024-02-16T07:35:41;5.90;99.90
45983;DHT22;31711;47.158;7.346;2024-02-16T07:38:07;5.90;99.90
45983;DHT22;31711;47.158;7.346;2024-02-16T07:40:33;6.00;99.90
45983;DHT22;31711;47.158;7.346;2024-02-16T07:42:59;6.10;99.90
45983;DHT22;31711;47.158;7.346;2024-02-16T07:45:26;6.20;99.90
45983;DHT22;31711;47.158;7.346;2024-02-16T07:47:52;6.30;99.90
45983;DHT22;31711;47.158;7.346;2024-02-16T07:50:21;6.40;99.90
45983;DHT22;31711;47.158;7.346;2024-02-16T07:52:49;6.50;99.90
45983;DHT22;31711;47.158;7.346;2024-02-16T07:55:15;6.70;99.90
45983;DHT22;31711;47.158;7.346;2024-02-16T07:57:44;6.80;99.90
45983;DHT22;31711;47.158;7.346;2024-02-16T08:00:11;7.00;99.90
45983;DHT22;31711;47.158;7.346;2024-02-16T08:02:37;7.10;99.90
45983;DHT22;31711;47.158;7.346;2024-02-16T08:05:04;7.30;99.90
45983;DHT22;31711;47.158;7.346;2024-02-16T08:07:31;7.40;99.90
45983;DHT22;31711;47.158;7.346;2024-02-16T08:09:57;7.60;99.90
45983;DHT22;31711;47.158;7.346;2024-02-16T08:12:23;7.60;99.90
45983;DHT22;31711;47.158;7.346;2024-02-16T08:14:51;7.80;99.90
45983;DHT22;31711;47.158;7.346;2024-02-16T08:17:17;7.90;99.90
45983;DHT22;31711;47.158;7.346;2024-02-16T08:19:43;7.70;99.90
45983;DHT22;31711;47.158;7.346;2024-02-16T08:22:09;7.90;99.90
45983;DHT22;31711;47.158;7.346;2024-02-16T08:24:35;7.90;99.90
45983;DHT22;31711;47.158;7.346;2024-02-16T08:27:03;7.60;99.90
45983;DHT22;31711;47.158;7.346;2024-02-16T08:29:30;7.70;99.90
45983;DHT22;31711;47.158;7.346;2024-02-16T08:31:56;7.70;99.90
45983;DHT22;31711;47.158;7.346;2024-02-16T08:34:22;7.60;99.90
45983;DHT22;31711;47.158;7.346;2024-02-16T08:36:49;7.50;99.90
45983;DHT22;31711;47.158;7.346;2024-02-16T08:39:16;7.50;99.90
45983;DHT22;31711;47.158;7.346;2024-02-16T08:41:43;7.60;99.90
45983;DHT22;31711;47.158;7.346;2024-02-16T08:44:14;7.50;99.90
45983;DHT22;31711;47.158;7.346;2024-02-16T08:46:41;7.70;99.90
45983;DHT22;31711;47.158;7.346;2024-02-16T08:49:06;7.80;99.90
45983;DHT22;31711;47.158;7.346;2024-02-16T08:51:33;8.00;99.90
45983;DHT22;31711;47.158;7.346;2024-02-16T08:54:00;8.00;99.90
45983;DHT22;31711;47.158;7.346;2024-02-16T08:56:27;8.20;99.90
45983;DHT22;31711;47.158;7.346;2024-02-16T08:58:53;8.20;99.90
45983;DHT22;31711;47.158;7.346;2024-02-16T09:01:19;8.50;99.90
45983;DHT22;31711;47.158;7.346;2024-02-16T09:03:45;8.70;99.90
45983;DHT22;31711;47.158;7.346;2024-02-16T09:06:10;8.90;99.90
45983;DHT22;31711;47.158;7.346;2024-02-16T09:08:36;9.10;99.90
45983;DHT22;31711;47.158;7.346;2024-02-16T09:11:03;9.30;99.90
45983;DHT22;31711;47.158;7.346;2024-02-16T09:13:39;9.40;99.90
45983;DHT22;31711;47.158;7.346;2024-02-16T09:16:06;9.60;99.90
45983;DHT22;31711;47.158;7.346;2024-02-16T09:18:33;9.60;99.90
45983;DHT22;31711;47.158;7.346;2024-02-16T09:20:59;9.60;99.90
45983;DHT22;31711;47.158;7.346;2024-02-16T09:23:26;9.80;99.90
45983;DHT22;31711;47.158;7.346;2024-02-16T09:25:52;10.00;99.90
45983;DHT22;31711;47.158;7.346;2024-02-16T09:28:18;10.00;99.90
45983;DHT22;31711;47.158;7.346;2024-02-16T09:30:45;9.90;99.90
45983;DHT22;31711;47.158;7.346;2024-02-16T09:33:11;10.20;99.90
45983;DHT22;31711;47.158;7.346;2024-02-16T09:35:37;10.40;99.90
45983;DHT22;31711;47.158;7.346;2024-02-16T09:38:03;10.60;99.90
45983;DHT22;31711;47.158;7.346;2024-02-16T09:40:29;10.80;99.90
45983;DHT22;31711;47.158;7.346;2024-02-16T09:42:55;11.10;99.90
45983;DHT22;31711;47.158;7.346;2024-02-16T09:45:21;11.20;99.90
45983;DHT22;31711;47.158;7.346;2024-02-16T09:47:50;11.30;99.90
45983;DHT22;31711;47.158;7.346;2024-02-16T09:50:17;11.30;99.90
45983;DHT22;31711;47.158;7.346;2024-02-16T09:52:48;11.40;99.90
45983;DHT22;31711;47.158;7.346;2024-02-16T09:55:15;11.70;99.90
45983;DHT22;31711;47.158;7.346;2024-02-16T09:57:41;11.70;99.90
45983;DHT22;31711;47.158;7.346;2024-02-16T10:00:07;11.80;99.90
45983;DHT22;31711;47.158;7.346;2024-02-16T10:07:42;12.00;99.90
45983;DHT22;31711;47.158;7.346;2024-02-16T10:10:26;12.10;99.90
45983;DHT22;31711;47.158;7.346;2024-02-16T10:13:04;12.20;99.90
45983;DHT22;31711;47.158;7.346;2024-02-16T10:15:34;12.10;99.90
45983;DHT22;31711;47.158;7.346;2024-02-16T10:18:04;12.30;99.90
45983;DHT22;31711;47.158;7.346;2024-02-16T10:20:33;12.10;99.90
45983;DHT22;31711;47.158;7.346;2024-02-16T10:23:17;12.20;99.90
45983;DHT22;31711;47.158;7.346;2024-02-16T10:25:43;12.30;99.90
45983;DHT22;31711;47.158;7.346;2024-02-16T10:28:10;12.40;99.90
45983;DHT22;31711;47.158;7.346;2024-02-16T10:30:41;12.50;99.90
45983;DHT22;31711;47.158;7.346;2024-02-16T10:33:11;12.30;99.90
45983;DHT22;31711;47.158;7.346;2024-02-16T10:35:41;12.50;99.90
45983;DHT22;31711;47.158;7.346;2024-02-16T10:38:08;12.90;99.90
45983;DHT22;31711;47.158;7.346;2024-02-16T10:40:39;12.80;99.90
45983;DHT22;31711;47.158;7.346;2024-02-16T10:43:07;12.80;99.90
45983;DHT22;31711;47.158;7.346;2024-02-16T10:45:39;13.10;99.90
45983;DHT22;31711;47.158;7.346;2024-02-16T10:48:06;13.30;99.90
45983;DHT22;31711;47.158;7.346;2024-02-16T10:50:34;13.50;99.90
45983;DHT22;31711;47.158;7.346;2024-02-16T10:56:06;13.80;99.90
45983;DHT22;31711;47.158;7.346;2024-02-16T10:58:33;13.40;99.90
45983;DHT22;31711;47.158;7.346;2024-02-16T11:01:08;13.20;99.90
45983;DHT22;31711;47.158;7.346;2024-02-16T11:03:38;13.10;99.90
45983;DHT22;31711;47.158;7.346;2024-02-16T11:06:17;13.10;99.90
45983;DHT22;31711;47.158;7.346;2024-02-16T11:08:43;13.00;99.90
45983;DHT22;31711;47.158;7.346;2024-02-16T11:11:09;12.90;99.90
45983;DHT22;31711;47.158;7.346;2024-02-16T11:13:38;13.00;99.90
45983;DHT22;31711;47.158;7.346;2024-02-16T11:16:09;12.80;99.90
45983;DHT22;31711;47.158;7.346;2024-02-16T11:18:42;13.00;99.90
45983;DHT22;31711;47.158;7.346;2024-02-16T11:21:14;12.90;99.90
45983;DHT22;31711;47.158;7.346;2024-02-16T11:23:41;12.80;99.90
45983;DHT22;31711;47.158;7.346;2024-02-16T11:26:11;12.50;99.90
45983;DHT22;31711;47.158;7.346;2024-02-16T11:28:40;12.70;99.90
45983;DHT22;31711;47.158;7.346;2024-02-16T11:31:06;12.80;99.90
45983;DHT22;31711;47.158;7.346;2024-02-16T11:33:35;12.90;99.90
45983;DHT22;31711;47.158;7.346;2024-02-16T11:36:04;12.90;99.90
45983;DHT22;31711;47.158;7.346;2024-02-16T11:38:34;12.90;99.90
45983;DHT22;31711;47.158;7.346;2024-02-16T11:41:02;13.00;99.90
45983;DHT22;31711;47.158;7.346;2024-02-16T11:43:29;13.00;99.90
45983;DHT22;31711;47.158;7.346;2024-02-16T11:45:55;13.00;99.90
45983;DHT22;31711;47.158;7.346;2024-02-16T11:48:23;13.00;99.90
45983;DHT22;31711;47.158;7.346;2024-02-16T11:50:50;12.90;99.90
45983;DHT22;31711;47.158;7.346;2024-02-16T11:53:23;12.70;99.90
45983;DHT22;31711;47.158;7.346;2024-02-16T11:55:50;12.60;99.90
45983;DHT22;31711;47.158;7.346;2024-02-16T11:58:17;12.70;99.90
45983;DHT22;31711;47.158;7.346;2024-02-16T12:00:48;12.70;99.90
45983;DHT22;31711;47.158;7.346;2024-02-16T12:03:21;12.70;99.90
45983;DHT22;31711;47.158;7.346;2024-02-16T12:06:06;12.60;99.90
45983;DHT22;31711;47.158;7.346;2024-02-16T12:08:33;12.50;99.90
45983;DHT22;31711;47.158;7.346;2024-02-16T12:11:00;12.40;99.90
45983;DHT22;31711;47.158;7.346;2024-02-16T12:13:27;12.40;99.90
45983;DHT22;31711;47.158;7.346;2024-02-16T12:15:53;12.40;99.90
45983;DHT22;31711;47.158;7.346;2024-02-16T12:18:22;12.50;99.90
45983;DHT22;31711;47.158;7.346;2024-02-16T12:21:00;12.80;99.90
45983;DHT22;31711;47.158;7.346;2024-02-16T12:23:28;12.90;99.90
45983;DHT22;31711;47.158;7.346;2024-02-16T12:25:54;12.90;99.90
45983;DHT22;31711;47.158;7.346;2024-02-16T12:28:25;12.90;99.90
45983;DHT22;31711;47.158;7.346;2024-02-16T12:30:51;13.00;99.90
45983;DHT22;31711;47.158;7.346;2024-02-16T12:33:17;12.80;99.90
45983;DHT22;31711;47.158;7.346;2024-02-16T12:35:43;12.70;99.90
45983;DHT22;31711;47.158;7.346;2024-02-16T12:38:11;12.90;99.90
45983;DHT22;31711;47.158;7.346;2024-02-16T12:40:37;12.80;99.90
45983;DHT22;31711;47.158;7.346;2024-02-16T12:43:03;13.00;99.90
45983;DHT22;31711;47.158;7.346;2024-02-16T12:45:30;13.20;99.90
45983;DHT22;31711;47.158;7.346;2024-02-16T12:47:57;13.30;99.90
45983;DHT22;31711;47.158;7.346;2024-02-16T12:50:23;13.40;99.90
45983;DHT22;31711;47.158;7.346;2024-02-16T12:52:49;13.30;99.90
45983;DHT22;31711;47.158;7.346;2024-02-16T12:55:15;13.10;99.90
45983;DHT22;31711;47.158;7.346;2024-02-16T12:57:41;13.20;99.90
45983;DHT22;31711;47.158;7.346;2024-02-16T13:00:08;13.40;99.90
45983;DHT22;31711;47.158;7.346;2024-02-16T13:02:34;13.20;99.90
45983;DHT22;31711;47.158;7.346;2024-02-16T13:05:00;13.10;99.90
45983;DHT22;31711;47.158;7.346;2024-02-16T13:07:26;13.30;99.90
45983;DHT22;31711;47.158;7.346;2024-02-16T13:09:52;13.30;99.90
45983;DHT22;31711;47.158;7.346;2024-02-16T13:12:19;13.40;99.90
45983;DHT22;31711;47.158;7.346;2024-02-16T13:14:48;13.40;99.90
45983;DHT22;31711;47.158;7.346;2024-02-16T13:17:14;13.50;99.90
45983;DHT22;31711;47.158;7.346;2024-02-16T13:19:40;13.70;99.90
45983;DHT22;31711;47.158;7.346;2024-02-16T13:22:06;14.00;99.90
45983;DHT22;31711;47.158;7.346;2024-02-16T13:24:32;14.20;99.90
45983;DHT22;31711;47.158;7.346;2024-02-16T13:26:59;14.20;99.90
45983;DHT22;31711;47.158;7.346;2024-02-16T13:29:25;14.40;99.90
45983;DHT22;31711;47.158;7.346;2024-02-16T13:31:51;14.60;99.90
45983;DHT22;31711;47.158;7.346;2024-02-16T13:34:17;14.80;99.90
45983;DHT22;31711;47.158;7.346;2024-02-16T13:36:43;14.70;99.90
45983;DHT22;31711;47.158;7.346;2024-02-16T13:39:09;14.60;99.90
45983;DHT22;31711;47.158;7.346;2024-02-16T13:41:35;14.80;99.90
45983;DHT22;31711;47.158;7.346;2024-02-16T13:44:01;15.10;99.90
45983;DHT22;31711;47.158;7.346;2024-02-16T13:46:28;15.30;99.90
45983;DHT22;31711;47.158;7.346;2024-02-16T13:48:54;15.50;99.90
45983;DHT22;31711;47.158;7.346;2024-02-16T13:51:22;15.60;99.90
45983;DHT22;31711;47.158;7.346;2024-02-16T13:53:48;15.70;99.90
45983;DHT22;31711;47.158;7.346;2024-02-16T13:56:14;15.70;99.90
45983;DHT22;31711;47.158;7.346;2024-02-16T13:58:40;15.90;99.90
45983;DHT22;31711;47.158;7.346;2024-02-16T14:01:06;16.00;99.90
45983;DHT22;31711;47.158;7.346;2024-02-16T14:03:33;16.00;99.90
45983;DHT22;31711;47.158;7.346;2024-02-16T14:06:00;15.60;99.90
45983;DHT22;31711;47.158;7.346;2024-02-16T14:08:26;15.30;99.90
45983;DHT22;31711;47.158;7.346;2024-02-16T14:10:52;15.40;99.90
45983;DHT22;31711;47.158;7.346;2024-02-16T14:13:18;15.20;99.90
45983;DHT22;31711;47.158;7.346;2024-02-16T14:15:45;15.30;99.90
45983;DHT22;31711;47.158;7.346;2024-02-16T14:18:11;15.20;99.90
45983;DHT22;31711;47.158;7.346;2024-02-16T14:20:37;15.30;99.90
45983;DHT22;31711;47.158;7.346;2024-02-16T14:23:03;15.40;99.90
45983;DHT22;31711;47.158;7.346;2024-02-16T14:25:29;15.30;99.90
45983;DHT22;31711;47.158;7.346;2024-02-16T14:27:55;15.10;99.90
45983;DHT22;31711;47.158;7.346;2024-02-16T14:30:21;15.20;99.90
45983;DHT22;31711;47.158;7.346;2024-02-16T14:32:47;15.20;99.90
45983;DHT22;31711;47.158;7.346;2024-02-16T14:35:13;15.20;99.90
45983;DHT22;31711;47.158;7.346;2024-02-16T14:37:39;15.20;99.90
45983;DHT22;31711;47.158;7.346;2024-02-16T14:40:06;15.10;99.90
45983;DHT22;31711;47.158;7.346;2024-02-16T14:42:36;15.00;99.90
45983;DHT22;31711;47.158;7.346;2024-02-16T14:45:04;15.00;99.90
45983;DHT22;31711;47.158;7.346;2024-02-16T14:47:31;15.00;99.90
45983;DHT22;31711;47.158;7.346;2024-02-16T14:49:57;15.00;99.90
45983;DHT22;31711;47.158;7.346;2024-02-16T14:52:23;15.00;99.90
45983;DHT22;31711;47.158;7.346;2024-02-16T14:54:49;15.00;99.90
45983;DHT22;31711;47.158;7.346;2024-02-16T14:57:15;15.10;99.90
45983;DHT22;31711;47.158;7.346;2024-02-16T14:59:45;14.90;99.90
45983;DHT22;31711;47.158;7.346;2024-02-16T15:02:11;14.80;99.90
45983;DHT22;31711;47.158;7.346;2024-02-16T15:04:37;14.70;99.90
45983;DHT22;31711;47.158;7.346;2024-02-16T15:07:03;14.60;99.90
45983;DHT22;31711;47.158;7.346;2024-02-16T15:09:29;14.60;99.90
45983;DHT22;31711;47.158;7.346;2024-02-16T15:11:55;14.50;99.90
45983;DHT22;31711;47.158;7.346;2024-02-16T15:14:21;14.60;99.90
45983;DHT22;31711;47.158;7.346;2024-02-16T15:16:48;14.50;99.90
45983;DHT22;31711;47.158;7.346;2024-02-16T15:19:14;14.50;99.90
45983;DHT22;31711;47.158;7.346;2024-02-16T15:21:40;14.30;99.90
45983;DHT22;31711;47.158;7.346;2024-02-16T15:24:06;14.20;99.90
45983;DHT22;31711;47.158;7.346;2024-02-16T15:26:32;14.10;99.90
45983;DHT22;31711;47.158;7.346;2024-02-16T15:28:58;13.90;99.90
45983;DHT22;31711;47.158;7.346;2024-02-16T15:31:24;14.00;99.90
45983;DHT22;31711;47.158;7.346;2024-02-16T15:33:50;14.00;99.90
45983;DHT22;31711;47.158;7.346;2024-02-16T15:36:16;13.80;99.90
45983;DHT22;31711;47.158;7.346;2024-02-16T15:38:42;13.70;99.90
45983;DHT22;31711;47.158;7.346;2024-02-16T15:41:07;13.60;99.90
45983;DHT22;31711;47.158;7.346;2024-02-16T15:43:33;13.60;99.90
45983;DHT22;31711;47.158;7.346;2024-02-16T15:45:59;13.60;99.90